18:50
Airports
Links
Donate
Help keep this website running!
PayPal
Bitcoin
METAR
KBOI 211753Z 10005KT 10SM SCT060 BKN070 M01/M14 A3017 RMK AO2 SLP239 T10061144 11006 21050 51008
Current Weather Conditions at KBOI
VFR 17:53:00 21-02-18
Automated station
Altimeter:30.17 hg
Temp:-0.6°c 32°f
Dew point:-14.4°cf
Wind:5 knots, 5.8 mph, 3 m/s, from 100°
Visibility:10.0 statute miles
7000(BKN) Broken
6000(SCT) Scattered
Past METAR reports
VFR 16:53:00 21-02-18
Automated station
Altimeter:30.16 hg
Temp:-2.2°c 28°f
Dew point:-15.0°cf
Wind:11 knots, 12.7 mph, 6 m/s, from 120°
Visibility:10.0 statute miles
6500(OVC) Overcast
KBOI 211653Z 12011KT 10SM OVC065 M02/M15 A3016 RMK AO2 SLP239 T10221150
VFR 15:53:00 21-02-18
Automated station
Altimeter:30.16 hg
Temp:-3.3°c 27°f
Dew point:-15.0°cf
Wind:9 knots, 10.4 mph, 5 m/s, from 120°
Visibility:10.0 statute miles
8000(OVC) Overcast
6000(BKN) Broken
KBOI 211553Z 12009KT 10SM BKN060 OVC080 M03/M15 A3016 RMK AO2 SLP239 T10331150
VFR 14:53:00 21-02-18
Automated station
Altimeter:30.14 hg
Temp:-4.4°c 25°f
Dew point:-15.0°cf
Wind:9 knots, 10.4 mph, 5 m/s, from 130°
Visibility:10.0 statute miles
9000(OVC) Overcast
6500(FEW) A few
KBOI 211453Z 13009KT 10SM FEW065 OVC090 M04/M15 A3014 RMK AO2 SLP236 T10441150 53004
VFR 13:53:00 21-02-18
Automated station
Altimeter:30.13 hg
Temp:-5.0°c 23°f
Dew point:-15.0°cf
Wind:10 knots, 11.5 mph, 5 m/s, from 130°
Visibility:10.0 statute miles
9500(OVC) Overcast
KBOI 211353Z 13010KT 10SM OVC095 M05/M15 A3013 RMK AO2 SLP231 T10501150
VFR 12:53:00 21-02-18
Automated station
Altimeter:30.12 hg
Temp:-5.0°c 23°f
Dew point:-15.6°cf
Wind:9 knots, 10.4 mph, 5 m/s, from 130°
Visibility:10.0 statute miles
11000(FEW) A few
KBOI 211253Z 13009KT 10SM FEW110 M05/M16 A3012 RMK AO2 SLP228 T10501156
TAF
KBOI 211738Z 2118/2218 12008KT P6SM SCT070 FM220600 14010KT P6SM VCSH SCT020 BKN040 FM220900 14012KT 4SM -SN BR OVC015
Forecast at KBOI
18:00 21-02-18 to 06:00 22-02-18
Wind:8 Knots from 120°
Visibility:6.21 statute miles
7000SCT Scattered
FM 06:00 22-02-18 to 09:00 22-02-18
VCSH
Wind:10 Knots from 140°
Visibility:6.21 statute miles
2000SCT Scattered
4000BKN Broken
FM 09:00 22-02-18 to 18:00 22-02-18
-SN BR
Wind:12 Knots from 140°
Visibility:4.0 statute miles
1500OVC Overcast